Ship Status Report: callsign BAREU11

sailwx.info

Track history (hours):
 
Tides and Currents Weather Stations Pressure Air Temp Water Temp Dewpoint Dewpoint Depression Visibility Wind Speed Wind Dir Waves Ship Positions

Callsign BAREU11 (name unknown)

Last reported at 2015-Mar-29 13:00 UTC. Time now 2015-Mar-29 13:48 UTC.
Position N 43°12' W 023°06'.

Barometer 1033.4 mb

Date/timePositionNaut miles runAvg speedWind from/ knotsBaromVisibWave heightAir tempDewpointWater temp
2015-Mar-29 13:00N 43°12' W 023°06'1918.5 1033.4
2015-Mar-29 12:00N 43°06' W 023°30'1918.5 1033.8
2015-Mar-29 11:00N 43°00' W 023°54'2121.3 1033.8
2015-Mar-29 10:00N 42°48' W 024°18'1514.5 1033.5
2015-Mar-29 09:00N 42°42' W 024°36'4019.8 1033.2
2015-Mar-29 07:00N 42°24' W 025°24'1918.7 1032.7
2015-Mar-29 06:00N 42°18' W 025°48'1817.9 1032.8
2015-Mar-29 05:00N 42°06' W 026°06'1918.8 1033.1
2015-Mar-29 04:00N 42°00' W 026°30'1918.8 1033.8
2015-Mar-29 03:00N 41°54' W 026°54'1818.0 1034.3
2015-Mar-29 02:00N 41°42' W 027°12'1918.9 1034.8
2015-Mar-29 01:00N 41°36' W 027°36'1514.7 1034.8
2015-Mar-29 00:00N 41°30' W 027°54'2221.6 1034.9
2015-Mar-28 23:00N 41°18' W 028°18'1919.0 1034.8
2015-Mar-28 22:00N 41°12' W 028°42'1818.1 1034.3
2015-Mar-28 21:00N 41°00' W 029°00'1919.1 1033.7
2015-Mar-28 20:00N 40°54' W 029°24'3718.3 1033.4
2015-Mar-28 18:00N 40°36' W 030°06'1919.2 1033.4
2015-Mar-28 17:00N 40°30' W 030°30'2221.9 1032.8
2015-Mar-28 16:00N 40°18' W 030°54'3417.1 1032.4
2015-Mar-28 14:00N 40°06' W 031°36'1818.3 1032.1
2015-Mar-28 13:00N 39°54' W 031°54'3919.4 1031.4
2015-Mar-28 11:00N 39°42' W 032°42'3718.5 1030.8
2015-Mar-28 09:00N 39°24' W 033°24'1818.4 1029.5
2015-Mar-28 08:00N 39°12' W 033°42'2019.6 1028.9
2015-Mar-28 07:00N 39°06' W 034°06'1515.2 1028.3
2015-Mar-28 06:00N 39°00' W 034°24'3718.7 1027.4
2015-Mar-28 04:00N 38°42' W 035°06'2019.7 1026.8
2015-Mar-28 03:00N 38°36' W 035°30'1918.5 1026.5
2015-Mar-28 02:00N 38°24' W 035°48'2019.8 1025.9
2015-Mar-28 01:00N 38°18' W 036°12'1918.5 1026.0
2015-Mar-28 00:00N 38°06' W 036°30'3517.6 1025.5
2015-Mar-27 22:00N 37°54' W 037°12'2222.4 1024.8
2015-Mar-27 21:00N 37°42' W 037°36'1515.5 1023.6
2015-Mar-27 20:00N 37°36' W 037°54'2322.5 1023.0
2015-Mar-27 19:00N 37°24' W 038°18'1615.5 1022.8
2015-Mar-27 18:00N 37°18' W 038°36'1615.5 1023.4
2015-Mar-27 17:00N 37°12' W 038°54'1918.7 1022.7
2015-Mar-27 16:00N 37°00' W 039°12'3417.0 1022.6
2015-Mar-27 14:00N 36°42' W 039°48'1615.6 1022.4
2015-Mar-27 13:00N 36°36' W 040°06'3818.8 1023.6
2015-Mar-27 11:00N 36°12' W 040°42'1615.7 1023.2
2015-Mar-27 10:00N 36°06' W 041°00'3417.1 1022.7
2015-Mar-27 08:00N 35°48' W 041°36'1918.9 1020.9
2015-Mar-27 07:00N 35°36' W 041°54'1615.8 1020.7
2015-Mar-27 06:00N 35°30' W 042°12'1515.5 1020.2
2015-Mar-27 05:00N 35°18' W 042°24'1919.0 1019.8
2015-Mar-27 04:00N 35°06' W 042°42'3517.3 1019.9
2015-Mar-27 02:00N 34°48' W 043°18'3819.1 1019.4
2015-Mar-27 00:00N 34°24' W 043°54'1919.1 1019.3
2015-Mar-26 23:00N 34°12' W 044°12'1616.1 1018.7
2015-Mar-26 22:00N 34°06' W 044°30'1919.1 1017.6
2015-Mar-26 21:00N 33°54' W 044°48'1615.6 1016.7
2015-Mar-26 20:00N 33°42' W 045°00'1616.1 1015.7
2015-Mar-26 19:00N 33°36' W 045°18'1615.6 1014.5
2015-Mar-26 18:00N 33°24' W 045°30'1919.2 1015.4
2015-Mar-26 17:00N 33°12' W 045°48'1616.2 1016.0
2015-Mar-26 16:00N 33°06' W 046°06'2121.0 1016.6
2015-Mar-26 15:00N 33°00' W 046°30'1616.3 1017.2
2015-Mar-26 14:00N 32°54' W 046°48'2121.0 1017.5
2015-Mar-26 13:00N 32°48' W 047°12'1616.3 1017.7
2015-Mar-26 12:00N 32°42' W 047°30'1919.3 1017.7
2015-Mar-26 11:00N 32°30' W 047°48'2121.1 1017.6
2015-Mar-26 10:00N 32°24' W 048°12'1616.3 1017.5
2015-Mar-26 09:00N 32°18' W 048°30'2121.2 1017.3
2015-Mar-26 08:00N 32°12' W 048°54'1616.4 1017.0
2015-Mar-26 07:00N 32°06' W 049°12'1616.4 1017.2
2015-Mar-26 06:00N 32°00' W 049°30'2121.2 1017.6
2015-Mar-26 05:00N 31°54' W 049°54'1616.4 1018.4
2015-Mar-26 04:00N 31°48' W 050°12'1616.4 1019.0
2015-Mar-26 03:00N 31°42' W 050°30'2121.3 1019.5
2015-Mar-26 02:00N 31°36' W 050°54'1616.5 1019.8
2015-Mar-26 01:00N 31°30' W 051°12'2121.3 1019.9
2015-Mar-26 00:00N 31°24' W 051°36'1716.5 1020.1
2015-Mar-25 23:00N 31°18' W 051°54'1716.5 1019.7
2015-Mar-25 22:00N 31°12' W 052°12'2121.4 1019.5
2015-Mar-25 21:00N 31°06' W 052°36'1716.5 1018.8
2015-Mar-25 20:00N 31°00' W 052°54'1716.6 1018.3
2015-Mar-25 19:00N 30°54' W 053°12'2121.5 1018.7
2015-Mar-25 18:00N 30°48' W 053°36'3316.6 1018.7
2015-Mar-25 16:00N 30°36' W 054°12'2221.5 1019.6
2015-Mar-25 15:00N 30°30' W 054°36'1716.6 1019.8
2015-Mar-25 14:00N 30°24' W 054°54'3215.8 1019.9
2015-Mar-25 12:00N 30°06' W 055°24'2019.7 1019.7
2015-Mar-25 11:00N 29°54' W 055°42'2019.7 1019.4
2015-Mar-25 10:00N 29°42' W 056°00'1615.9 1018.9
2015-Mar-25 09:00N 29°30' W 056°12'2019.7 1018.8
2015-Mar-25 08:00N 29°18' W 056°30'1615.9 1018.6
2015-Mar-25 07:00N 29°06' W 056°42'2019.8 1018.8
2015-Mar-25 06:00N 28°54' W 057°00'1616.0 1019.4
2015-Mar-25 05:00N 28°42' W 057°12'4020.0 1019.6
2015-Mar-25 03:00N 28°12' W 057°42'5217.2 1020.4
2015-Mar-25 00:00N 27°36' W 058°24'2020.0 1021.1
2015-Mar-24 23:00N 27°24' W 058°42'1616.1 1020.7
2015-Mar-24 22:00N 27°12' W 058°54'1616.1 1020.0
2015-Mar-24 21:00N 27°00' W 059°06'2020.0 1019.6
2015-Mar-24 20:00N 26°48' W 059°24'1616.1 1019.7
2015-Mar-24 19:00N 26°36' W 059°36'2424.2 1019.7
2015-Mar-24 18:00N 26°18' W 059°54'1212.3 1020.1
2015-Mar-24 17:00N 26°12' W 060°06'2020.1 1020.2
2015-Mar-24 16:00N 26°00' W 060°24'2121.0 1020.6
2015-Mar-24 15:00N 25°42' W 060°36'1212.4 1021.1
2015-Mar-24 14:00N 25°36' W 060°48'2424.3 1021.0
2015-Mar-24 13:00N 25°18' W 061°06'4020.2 1021.0
2015-Mar-24 11:00N 24°48' W 061°36'1717.4 1019.8
2015-Mar-24 10:00N 24°42' W 061°54'1616.2 1019.0
2015-Mar-24 09:00N 24°30' W 062°06'2121.1 1018.6
2015-Mar-24 08:00N 24°12' W 062°18'2020.3 1018.3
2015-Mar-24 07:00N 24°00' W 062°36'1616.3 1018.5
2015-Mar-24 06:00N 23°48' W 062°48'1616.3 1018.9
2015-Mar-24 05:00N 23°36' W 063°00'1616.3 1019.6
2015-Mar-24 04:00N 23°24' W 063°12'2020.4 1020.0
2015-Mar-24 03:00N 23°12' W 063°30'1616.3 1020.3
2015-Mar-24 02:00N 23°00' W 063°42'1616.3 1020.4
2015-Mar-24 01:00N 22°48' W 063°54'1616.3 1019.9
2015-Mar-24 00:00N 22°36' W 064°06'1616.3 1019.2
2015-Mar-23 23:00N 22°24' W 064°18'1616.3 1018.6
2015-Mar-23 22:00N 22°12' W 064°30'2120.5 1018.0
2015-Mar-23 21:00N 22°00' W 064°48'2121.2 1017.6
2015-Mar-23 20:00N 21°42' W 065°00'1616.4 1017.5
2015-Mar-23 19:00N 21°30' W 065°12'1616.4 1017.7
2015-Mar-23 18:00N 21°18' W 065°24'2120.6 1018.0
2015-Mar-23 17:00N 21°06' W 065°42'1616.4 1018.4
2015-Mar-23 16:00N 20°54' W 065°54'1616.4 1018.9
2015-Mar-23 15:00N 20°42' W 066°06'1616.4 1019.3
2015-Mar-23 14:00N 20°30' W 066°18'2121.2 1018.9
2015-Mar-23 13:00N 20°12' W 066°30'2120.7 1018.4
2015-Mar-23 12:00N 20°00' W 066°48'1616.5 1017.6
2015-Mar-23 11:00N 19°48' W 067°00'1616.5 1016.9
2015-Mar-23 10:00N 19°36' W 067°12'1616.5 1016.4
2015-Mar-23 09:00N 19°24' W 067°24'1716.5 1016.0
2015-Mar-23 08:00N 19°12' W 067°36'3818.8 1015.8
2015-Mar-23 06:00N 18°42' W 068°00'2121.3 1016.4
2015-Mar-23 05:00N 18°24' W 068°12'1313.3 1016.7
2015-Mar-23 04:00N 18°12' W 068°18'1716.6 1017.2
2015-Mar-23 03:00N 18°00' W 068°30'1818.1 1017.2
2015-Mar-23 02:00N 18°06' W 068°48'1818.1 1017.1
2015-Mar-23 01:00N 18°12' W 069°06'1818.1 1016.1
2015-Mar-23 00:00N 18°18' W 069°24'13 1.6 1015.8
2015-Mar-22 16:00N 18°24' W 069°36'0 0.0 1017.7
2015-Mar-22 09:00N 18°24' W 069°36'1313.3 1015.6
2015-Mar-22 08:00N 18°12' W 069°42'1716.6 1015.0
2015-Mar-22 07:00N 18°00' W 069°54'2121.3 1015.0
2015-Mar-22 06:00N 17°42' W 070°06'1716.6 1015.8
2015-Mar-22 05:00N 17°30' W 070°18'2121.3 1016.3
2015-Mar-22 04:00N 17°12' W 070°30'1716.6 1016.6
2015-Mar-22 03:00N 17°00' W 070°42'2121.4 1016.7
2015-Mar-22 02:00N 16°42' W 070°54'1716.6 1016.6
2015-Mar-22 01:00N 16°30' W 071°06'1716.6 1016.2
2015-Mar-22 00:00N 16°18' W 071°18'2121.4 1015.6
2015-Mar-21 23:00N 16°00' W 071°30'1716.6 1015.0
2015-Mar-21 22:00N 15°48' W 071°42'2121.4 1014.8
2015-Mar-21 21:00N 15°30' W 071°54'1716.7 1014.8
2015-Mar-21 20:00N 15°18' W 072°06'2121.4 1014.9
2015-Mar-21 19:00N 15°00' W 072°18'1716.7 1015.3
2015-Mar-21 18:00N 14°48' W 072°30'1716.7 1016.0
2015-Mar-21 17:00N 14°36' W 072°42'2121.4 1016.6
2015-Mar-21 16:00N 14°18' W 072°54'1716.7 1017.1
2015-Mar-21 15:00N 14°06' W 073°06'2121.4 1017.2
2015-Mar-21 14:00N 13°48' W 073°18'1716.7 1016.9
2015-Mar-21 13:00N 13°36' W 073°30'1716.7 1016.2
2015-Mar-21 12:00N 13°24' W 073°42'2121.5 1015.3
2015-Mar-21 11:00N 13°06' W 073°54'1313.3 1014.5
2015-Mar-21 10:00N 12°54' W 074°00'2121.5 1013.7
2015-Mar-21 09:00N 12°36' W 074°12'1716.8 1013.3
2015-Mar-21 08:00N 12°24' W 074°24'2121.5 1013.2
2015-Mar-21 07:00N 12°06' W 074°36'1716.8 1013.2
2015-Mar-21 06:00N 11°54' W 074°48'1716.8 1013.9
2015-Mar-21 05:00N 11°42' W 075°00'2121.5 1013.9
2015-Mar-21 04:00N 11°24' W 075°12'1716.8 1013.4
2015-Mar-21 03:00N 11°12' W 075°24'2221.5 1014.0
2015-Mar-21 02:00N 10°54' W 075°36'1313.4 1013.9
2015-Mar-21 01:00N 10°42' W 075°42'1818.0 1013.2
2015-Mar-21 00:00N 10°24' W 075°42'1211.8 1011.7
2015-Mar-20 23:00N 10°24' W 075°30'0 0.0 1011.7
2015-Mar-20 14:00N 10°24' W 075°30'0 0.0 1015.4
2015-Mar-20 06:00N 10°24' W 075°30'0 0.0 1013.2
2015-Mar-19 17:00N 10°24' W 075°30'0 0.0 1013.2
2015-Mar-19 16:00N 10°24' W 075°30'8 8.4 1013.7
2015-Mar-19 15:00N 10°18' W 075°36'1211.8 1014.0
2015-Mar-19 14:00N 10°18' W 075°48'6 5.9 1013.8
2015-Mar-19 13:00N 10°18' W 075°54'   1012.6
Track history (hours):
 
Tides and Currents Weather Stations Pressure Air Temp Water Temp Dewpoint Dewpoint Depression Visibility Wind Speed Wind Dir Waves Ship Positions

Callsign BAREU11 (name unknown)

Last reported at 2015-Mar-29 13:00 UTC. Time now 2015-Mar-29 13:48 UTC.
Position N 43°12' W 023°06'.

Barometer 1033.4 mb

Date/timePositionNaut miles runAvg speedWind from/ knotsBaromVisibWave heightAir tempDewpointWater temp
2015-Mar-29 13:00N 43°12' W 023°06'1918.5 1033.4
2015-Mar-29 12:00N 43°06' W 023°30'1918.5 1033.8
2015-Mar-29 11:00N 43°00' W 023°54'2121.3 1033.8
2015-Mar-29 10:00N 42°48' W 024°18'1514.5 1033.5
2015-Mar-29 09:00N 42°42' W 024°36'4019.8 1033.2
2015-Mar-29 07:00N 42°24' W 025°24'1918.7 1032.7
2015-Mar-29 06:00N 42°18' W 025°48'1817.9 1032.8
2015-Mar-29 05:00N 42°06' W 026°06'1918.8 1033.1
2015-Mar-29 04:00N 42°00' W 026°30'1918.8 1033.8
2015-Mar-29 03:00N 41°54' W 026°54'1818.0 1034.3
2015-Mar-29 02:00N 41°42' W 027°12'1918.9 1034.8
2015-Mar-29 01:00N 41°36' W 027°36'1514.7 1034.8
2015-Mar-29 00:00N 41°30' W 027°54'2221.6 1034.9
2015-Mar-28 23:00N 41°18' W 028°18'1919.0 1034.8
2015-Mar-28 22:00N 41°12' W 028°42'1818.1 1034.3
2015-Mar-28 21:00N 41°00' W 029°00'1919.1 1033.7
2015-Mar-28 20:00N 40°54' W 029°24'3718.3 1033.4
2015-Mar-28 18:00N 40°36' W 030°06'1919.2 1033.4
2015-Mar-28 17:00N 40°30' W 030°30'2221.9 1032.8
2015-Mar-28 16:00N 40°18' W 030°54'3417.1 1032.4
2015-Mar-28 14:00N 40°06' W 031°36'1818.3 1032.1
2015-Mar-28 13:00N 39°54' W 031°54'3919.4 1031.4
2015-Mar-28 11:00N 39°42' W 032°42'3718.5 1030.8
2015-Mar-28 09:00N 39°24' W 033°24'1818.4 1029.5
2015-Mar-28 08:00N 39°12' W 033°42'2019.6 1028.9
2015-Mar-28 07:00N 39°06' W 034°06'1515.2 1028.3
2015-Mar-28 06:00N 39°00' W 034°24'3718.7 1027.4
2015-Mar-28 04:00N 38°42' W 035°06'2019.7 1026.8
2015-Mar-28 03:00N 38°36' W 035°30'1918.5 1026.5
2015-Mar-28 02:00N 38°24' W 035°48'2019.8 1025.9
2015-Mar-28 01:00N 38°18' W 036°12'1918.5 1026.0
2015-Mar-28 00:00N 38°06' W 036°30'3517.6 1025.5
2015-Mar-27 22:00N 37°54' W 037°12'2222.4 1024.8
2015-Mar-27 21:00N 37°42' W 037°36'1515.5 1023.6
2015-Mar-27 20:00N 37°36' W 037°54'2322.5 1023.0
2015-Mar-27 19:00N 37°24' W 038°18'1615.5 1022.8
2015-Mar-27 18:00N 37°18' W 038°36'1615.5 1023.4
2015-Mar-27 17:00N 37°12' W 038°54'1918.7 1022.7
2015-Mar-27 16:00N 37°00' W 039°12'3417.0 1022.6
2015-Mar-27 14:00N 36°42' W 039°48'1615.6 1022.4
2015-Mar-27 13:00N 36°36' W 040°06'3818.8 1023.6
2015-Mar-27 11:00N 36°12' W 040°42'1615.7 1023.2
2015-Mar-27 10:00N 36°06' W 041°00'3417.1 1022.7
2015-Mar-27 08:00N 35°48' W 041°36'1918.9 1020.9
2015-Mar-27 07:00N 35°36' W 041°54'1615.8 1020.7
2015-Mar-27 06:00N 35°30' W 042°12'1515.5 1020.2
2015-Mar-27 05:00N 35°18' W 042°24'1919.0 1019.8
2015-Mar-27 04:00N 35°06' W 042°42'3517.3 1019.9
2015-Mar-27 02:00N 34°48' W 043°18'3819.1 1019.4
2015-Mar-27 00:00N 34°24' W 043°54'1919.1 1019.3
2015-Mar-26 23:00N 34°12' W 044°12'1616.1 1018.7
2015-Mar-26 22:00N 34°06' W 044°30'1919.1 1017.6
2015-Mar-26 21:00N 33°54' W 044°48'1615.6 1016.7
2015-Mar-26 20:00N 33°42' W 045°00'1616.1 1015.7
2015-Mar-26 19:00N 33°36' W 045°18'1615.6 1014.5
2015-Mar-26 18:00N 33°24' W 045°30'1919.2 1015.4
2015-Mar-26 17:00N 33°12' W 045°48'1616.2 1016.0
2015-Mar-26 16:00N 33°06' W 046°06'2121.0 1016.6
2015-Mar-26 15:00N 33°00' W 046°30'1616.3 1017.2
2015-Mar-26 14:00N 32°54' W 046°48'2121.0 1017.5
2015-Mar-26 13:00N 32°48' W 047°12'1616.3 1017.7
2015-Mar-26 12:00N 32°42' W 047°30'1919.3 1017.7
2015-Mar-26 11:00N 32°30' W 047°48'2121.1 1017.6
2015-Mar-26 10:00N 32°24' W 048°12'1616.3 1017.5
2015-Mar-26 09:00N 32°18' W 048°30'2121.2 1017.3
2015-Mar-26 08:00N 32°12' W 048°54'1616.4 1017.0
2015-Mar-26 07:00N 32°06' W 049°12'1616.4 1017.2
2015-Mar-26 06:00N 32°00' W 049°30'2121.2 1017.6
2015-Mar-26 05:00N 31°54' W 049°54'1616.4 1018.4
2015-Mar-26 04:00N 31°48' W 050°12'1616.4 1019.0
2015-Mar-26 03:00N 31°42' W 050°30'2121.3 1019.5
2015-Mar-26 02:00N 31°36' W 050°54'1616.5 1019.8
2015-Mar-26 01:00N 31°30' W 051°12'2121.3 1019.9
2015-Mar-26 00:00N 31°24' W 051°36'1716.5 1020.1
2015-Mar-25 23:00N 31°18' W 051°54'1716.5 1019.7
2015-Mar-25 22:00N 31°12' W 052°12'2121.4 1019.5
2015-Mar-25 21:00N 31°06' W 052°36'1716.5 1018.8
2015-Mar-25 20:00N 31°00' W 052°54'1716.6 1018.3
2015-Mar-25 19:00N 30°54' W 053°12'2121.5 1018.7
2015-Mar-25 18:00N 30°48' W 053°36'3316.6 1018.7
2015-Mar-25 16:00N 30°36' W 054°12'2221.5 1019.6
2015-Mar-25 15:00N 30°30' W 054°36'1716.6 1019.8
2015-Mar-25 14:00N 30°24' W 054°54'3215.8 1019.9
2015-Mar-25 12:00N 30°06' W 055°24'2019.7 1019.7
2015-Mar-25 11:00N 29°54' W 055°42'2019.7 1019.4
2015-Mar-25 10:00N 29°42' W 056°00'1615.9 1018.9
2015-Mar-25 09:00N 29°30' W 056°12'2019.7 1018.8
2015-Mar-25 08:00N 29°18' W 056°30'1615.9 1018.6
2015-Mar-25 07:00N 29°06' W 056°42'2019.8 1018.8
2015-Mar-25 06:00N 28°54' W 057°00'1616.0 1019.4
2015-Mar-25 05:00N 28°42' W 057°12'4020.0 1019.6
2015-Mar-25 03:00N 28°12' W 057°42'5217.2 1020.4
2015-Mar-25 00:00N 27°36' W 058°24'2020.0 1021.1
2015-Mar-24 23:00N 27°24' W 058°42'1616.1 1020.7
2015-Mar-24 22:00N 27°12' W 058°54'1616.1 1020.0
2015-Mar-24 21:00N 27°00' W 059°06'2020.0 1019.6
2015-Mar-24 20:00N 26°48' W 059°24'1616.1 1019.7
2015-Mar-24 19:00N 26°36' W 059°36'2424.2 1019.7
2015-Mar-24 18:00N 26°18' W 059°54'1212.3 1020.1
2015-Mar-24 17:00N 26°12' W 060°06'2020.1 1020.2
2015-Mar-24 16:00N 26°00' W 060°24'2121.0 1020.6
2015-Mar-24 15:00N 25°42' W 060°36'1212.4 1021.1
2015-Mar-24 14:00N 25°36' W 060°48'2424.3 1021.0
2015-Mar-24 13:00N 25°18' W 061°06'4020.2 1021.0
2015-Mar-24 11:00N 24°48' W 061°36'1717.4 1019.8
2015-Mar-24 10:00N 24°42' W 061°54'1616.2 1019.0
2015-Mar-24 09:00N 24°30' W 062°06'2121.1 1018.6
2015-Mar-24 08:00N 24°12' W 062°18'2020.3 1018.3
2015-Mar-24 07:00N 24°00' W 062°36'1616.3 1018.5
2015-Mar-24 06:00N 23°48' W 062°48'1616.3 1018.9
2015-Mar-24 05:00N 23°36' W 063°00'1616.3 1019.6
2015-Mar-24 04:00N 23°24' W 063°12'2020.4 1020.0
2015-Mar-24 03:00N 23°12' W 063°30'1616.3 1020.3
2015-Mar-24 02:00N 23°00' W 063°42'1616.3 1020.4
2015-Mar-24 01:00N 22°48' W 063°54'1616.3 1019.9
2015-Mar-24 00:00N 22°36' W 064°06'1616.3 1019.2
2015-Mar-23 23:00N 22°24' W 064°18'1616.3 1018.6
2015-Mar-23 22:00N 22°12' W 064°30'2120.5 1018.0
2015-Mar-23 21:00N 22°00' W 064°48'2121.2 1017.6
2015-Mar-23 20:00N 21°42' W 065°00'1616.4 1017.5
2015-Mar-23 19:00N 21°30' W 065°12'1616.4 1017.7
2015-Mar-23 18:00N 21°18' W 065°24'2120.6 1018.0
2015-Mar-23 17:00N 21°06' W 065°42'1616.4 1018.4
2015-Mar-23 16:00N 20°54' W 065°54'1616.4 1018.9
2015-Mar-23 15:00N 20°42' W 066°06'1616.4 1019.3
2015-Mar-23 14:00N 20°30' W 066°18'2121.2 1018.9
2015-Mar-23 13:00N 20°12' W 066°30'2120.7 1018.4
2015-Mar-23 12:00N 20°00' W 066°48'1616.5 1017.6
2015-Mar-23 11:00N 19°48' W 067°00'1616.5 1016.9
2015-Mar-23 10:00N 19°36' W 067°12'1616.5 1016.4
2015-Mar-23 09:00N 19°24' W 067°24'1716.5 1016.0
2015-Mar-23 08:00N 19°12' W 067°36'3818.8 1015.8
2015-Mar-23 06:00N 18°42' W 068°00'2121.3 1016.4
2015-Mar-23 05:00N 18°24' W 068°12'1313.3 1016.7
2015-Mar-23 04:00N 18°12' W 068°18'1716.6 1017.2
2015-Mar-23 03:00N 18°00' W 068°30'1818.1 1017.2
2015-Mar-23 02:00N 18°06' W 068°48'1818.1 1017.1
2015-Mar-23 01:00N 18°12' W 069°06'1818.1 1016.1
2015-Mar-23 00:00N 18°18' W 069°24'13 1.6 1015.8
2015-Mar-22 16:00N 18°24' W 069°36'0 0.0 1017.7
2015-Mar-22 09:00N 18°24' W 069°36'1313.3 1015.6
2015-Mar-22 08:00N 18°12' W 069°42'1716.6 1015.0
2015-Mar-22 07:00N 18°00' W 069°54'2121.3 1015.0
2015-Mar-22 06:00N 17°42' W 070°06'1716.6 1015.8
2015-Mar-22 05:00N 17°30' W 070°18'2121.3 1016.3
2015-Mar-22 04:00N 17°12' W 070°30'1716.6 1016.6
2015-Mar-22 03:00N 17°00' W 070°42'2121.4 1016.7
2015-Mar-22 02:00N 16°42' W 070°54'1716.6 1016.6
2015-Mar-22 01:00N 16°30' W 071°06'1716.6 1016.2
2015-Mar-22 00:00N 16°18' W 071°18'2121.4 1015.6
2015-Mar-21 23:00N 16°00' W 071°30'1716.6 1015.0
2015-Mar-21 22:00N 15°48' W 071°42'2121.4 1014.8
2015-Mar-21 21:00N 15°30' W 071°54'1716.7 1014.8
2015-Mar-21 20:00N 15°18' W 072°06'2121.4 1014.9
2015-Mar-21 19:00N 15°00' W 072°18'1716.7 1015.3
2015-Mar-21 18:00N 14°48' W 072°30'1716.7 1016.0
2015-Mar-21 17:00N 14°36' W 072°42'2121.4 1016.6
2015-Mar-21 16:00N 14°18' W 072°54'1716.7 1017.1
2015-Mar-21 15:00N 14°06' W 073°06'2121.4 1017.2
2015-Mar-21 14:00N 13°48' W 073°18'1716.7 1016.9
2015-Mar-21 13:00N 13°36' W 073°30'1716.7 1016.2
2015-Mar-21 12:00N 13°24' W 073°42'2121.5 1015.3
2015-Mar-21 11:00N 13°06' W 073°54'1313.3 1014.5
2015-Mar-21 10:00N 12°54' W 074°00'2121.5 1013.7
2015-Mar-21 09:00N 12°36' W 074°12'1716.8 1013.3
2015-Mar-21 08:00N 12°24' W 074°24'2121.5 1013.2
2015-Mar-21 07:00N 12°06' W 074°36'1716.8 1013.2
2015-Mar-21 06:00N 11°54' W 074°48'1716.8 1013.9
2015-Mar-21 05:00N 11°42' W 075°00'2121.5 1013.9
2015-Mar-21 04:00N 11°24' W 075°12'1716.8 1013.4
2015-Mar-21 03:00N 11°12' W 075°24'2221.5 1014.0
2015-Mar-21 02:00N 10°54' W 075°36'1313.4 1013.9
2015-Mar-21 01:00N 10°42' W 075°42'1818.0 1013.2
2015-Mar-21 00:00N 10°24' W 075°42'1211.8 1011.7
2015-Mar-20 23:00N 10°24' W 075°30'0 0.0 1011.7
2015-Mar-20 14:00N 10°24' W 075°30'0 0.0 1015.4
2015-Mar-20 06:00N 10°24' W 075°30'0 0.0 1013.2
2015-Mar-19 17:00N 10°24' W 075°30'0 0.0 1013.2
2015-Mar-19 16:00N 10°24' W 075°30'8 8.4 1013.7
2015-Mar-19 15:00N 10°18' W 075°36'1211.8 1014.0
2015-Mar-19 14:00N 10°18' W 075°48'6 5.9 1013.8
2015-Mar-19 13:00N 10°18' W 075°54'   1012.6

Dump ship's entire track history